Birthe Bres — OXPX2 — position and weather

sailwx.info

Track history (hours):
 
Tides and Currents Weather Stations Pressure Air Temp Water Temp Dewpoint Dewpoint Depression Visibility Wind Speed Wind Dir Waves Ship Positions

Birthe Bres

Last reported at 2017-Dec-15 10:26 UTC. Time now 2017-Dec-18 03:37 UTC.
Position N 36°02' W 005°21'.

Length 88 m; draft 3.9 m.

Type: Cargo ship. MMSI: 220506000.

Date/timePositionNaut miles runAvg speedWind from/ knotsBaromVisibWave heightAir tempDewpointWater temp
2017-Dec-15 10:26N 36°02' W 005°21'3 8.1
2017-Dec-15 10:00N 36°03' W 005°17'224 9.4
2017-Dec-14 10:09N 37°20' W 000°55'210.6
2017-Dec-14 10:00N 37°21' W 000°53'510.4
2017-Dec-14 09:30N 37°24' W 000°48'1310.3
2017-Dec-14 08:12N 37°33' W 000°36'210.3
2017-Dec-14 08:00N 37°34' W 000°34'510.1
2017-Dec-14 07:30N 37°38' W 000°30'510.6
2017-Dec-14 07:00N 37°43' W 000°26'2010.3
2017-Dec-14 05:02N 37°60' W 000°12'010.2
2017-Dec-14 05:00N 38°00' W 000°12'  
2017-Dec-09 03:31N 37°56' W 000°26'012.4
2017-Dec-09 03:30N 37°56' W 000°26'612.6
2017-Dec-09 03:00N 37°50' W 000°27'612.5
2017-Dec-09 02:30N 37°44' W 000°29'612.6
2017-Dec-09 02:00N 37°37' W 000°30'611.8
2017-Dec-09 01:30N 37°32' W 000°32'911.9
2017-Dec-09 00:47N 37°26' W 000°39'311.6
2017-Dec-09 00:30N 37°23' W 000°42'611.5
2017-Dec-09 00:00N 37°19' W 000°47'  
Track history (hours):
 
Tides and Currents Weather Stations Pressure Air Temp Water Temp Dewpoint Dewpoint Depression Visibility Wind Speed Wind Dir Waves Ship Positions

Birthe Bres

Last reported at 2017-Dec-15 10:26 UTC. Time now 2017-Dec-18 03:37 UTC.
Position N 36°02' W 005°21'.

Length 88 m; draft 3.9 m.

Type: Cargo ship. MMSI: 220506000.

Date/timePositionNaut miles runAvg speedWind from/ knotsBaromVisibWave heightAir tempDewpointWater temp
2017-Dec-15 10:26N 36°02' W 005°21'3 8.1
2017-Dec-15 10:00N 36°03' W 005°17'224 9.4
2017-Dec-14 10:09N 37°20' W 000°55'210.6
2017-Dec-14 10:00N 37°21' W 000°53'510.4
2017-Dec-14 09:30N 37°24' W 000°48'1310.3
2017-Dec-14 08:12N 37°33' W 000°36'210.3
2017-Dec-14 08:00N 37°34' W 000°34'510.1
2017-Dec-14 07:30N 37°38' W 000°30'510.6
2017-Dec-14 07:00N 37°43' W 000°26'2010.3
2017-Dec-14 05:02N 37°60' W 000°12'010.2
2017-Dec-14 05:00N 38°00' W 000°12'  
2017-Dec-09 03:31N 37°56' W 000°26'012.4
2017-Dec-09 03:30N 37°56' W 000°26'612.6
2017-Dec-09 03:00N 37°50' W 000°27'612.5
2017-Dec-09 02:30N 37°44' W 000°29'612.6
2017-Dec-09 02:00N 37°37' W 000°30'611.8
2017-Dec-09 01:30N 37°32' W 000°32'911.9
2017-Dec-09 00:47N 37°26' W 000°39'311.6
2017-Dec-09 00:30N 37°23' W 000°42'611.5
2017-Dec-09 00:00N 37°19' W 000°47'  

Dump ship's entire track history